Skip Navigation Links
NOAA logo - Click to go to the NOAA homepage
NOAA's National Weather Service
Alaska Aviation Weather Unit
  NWS logo - Click to go to the NWS homepage
Left Navbar Graphic     23 AKDT = 07 GMT

   
NOAA is celebrating 200 years of science, service, and stewardship. Visit the NOAA 200th celebration Web site to learn more.
USA.gov is the U.S. Government's official Web portal to all Federal, state and local government Web resources and services.
Facebook
NWS on Facebook

Important Change Regarding the AAWU Web Presence

 

Over the last several months, the AAWU has been working to navigate its webpages to a nationally supported server. Security, as well as other needs, have necessitated the change.  In the process, we have made an effort to enhance the functionality of our website, as well as some of our products. As of June 20, 2017, aawu.arh.noaa.gov will be discontinued. The new AAWU web address is weather.gov/aawu. It is now live and will run in-parallel with the old site until it is discontinued. Please send any feedback or questions regarding the new webpages to nws.ar.aawu.webauthors@noaa.gov.  Thank you for your patience during this time of transition.
AAWU Home :: Display TAF Add Bookmark
METAR PAZK 240156Z AUTO 24007G14KT FEW070 08/M05 A2991 RMK AO2 SLP955
     T00831050 PWINO $=

METAR PAZK 240256Z AUTO 21011G17KT SCT070 08/M05 A2992 RMK AO2 SLP956
     T00781050 51006 PWINO $=

METAR PAZK 240356Z AUTO 22011KT SCT070 07/M05 A2993 RMK AO2 SLP961
     T00721050 PWINO $=

METAR PAZK 240456Z AUTO 24010KT CLR 06/M06 A2994 RMK AO2 SLP963
     T00611056 PWINO $=

METAR PAZK 240556Z AUTO 28005KT BKN055 05/M06 A2995 RMK AO2 SLP968
     T00501056 10089 20050 51009 PWINO $=

METAR PAZK 240656Z AUTO 21004KT BKN055 03/M05 A2996 RMK AO2 SLP973
     T00281050 PWINO $=


NOAA's National Weather Service
Alaska Aviation Weather Unit
6930 Sand Lake Road
Anchorage, AK 99502-1845
Disclaimer
Credits
Glossary
Privacy Policy
About Us
Career Opportunities
Contact AAWU Internet Services Site last modified: April, 17th 2012